createdAt,value
2019-03-04T00:03:41.878Z,13.75
2019-03-04T00:08:44.580Z,13.81
2019-03-04T00:13:47.276Z,14.06
2019-03-04T00:18:49.984Z,14.15
2019-03-04T00:23:52.677Z,14.07
2019-03-04T00:28:55.395Z,14.20
2019-03-04T00:33:58.240Z,14.23
2019-03-04T00:39:00.973Z,14.27
2019-03-04T00:44:03.693Z,14.29
2019-03-04T00:49:06.387Z,14.34
2019-03-04T00:54:09.083Z,14.45
2019-03-04T00:59:11.784Z,14.35
2019-03-04T01:04:14.498Z,14.44
2019-03-04T01:09:17.433Z,14.56
2019-03-04T01:14:20.160Z,14.53
2019-03-04T01:19:22.897Z,14.66
2019-03-04T01:24:25.622Z,14.72
2019-03-04T01:29:28.315Z,14.77
2019-03-04T01:34:31.006Z,14.79
2019-03-04T01:39:33.696Z,14.68
2019-03-04T01:44:36.398Z,14.74
2019-03-04T01:49:39.120Z,14.81
2019-03-04T01:54:41.841Z,14.77
2019-03-04T01:59:44.552Z,14.85
2019-03-04T02:04:47.237Z,14.85
2019-03-04T02:09:49.956Z,14.87
2019-03-04T02:14:52.713Z,14.92
2019-03-04T02:19:55.412Z,14.94
2019-03-04T02:24:58.134Z,14.90
2019-03-04T02:30:00.839Z,14.88
2019-03-04T02:35:03.856Z,14.92
2019-03-04T02:40:07.372Z,14.83
2019-03-04T02:45:13.401Z,14.94
2019-03-04T02:50:16.139Z,14.99
2019-03-04T02:55:18.852Z,14.97
2019-03-04T03:00:21.609Z,14.96
2019-03-04T03:05:24.318Z,14.91
2019-03-04T03:10:27.022Z,15.02
2019-03-04T03:15:29.722Z,14.98
2019-03-04T03:20:32.438Z,14.94
2019-03-04T03:25:35.132Z,14.94
2019-03-04T03:30:37.854Z,14.88
2019-03-04T03:35:40.582Z,15.00
2019-03-04T03:40:43.316Z,15.06
2019-03-04T03:45:46.029Z,15.03
2019-03-04T03:50:48.750Z,14.95
2019-03-04T03:55:51.588Z,14.81
2019-03-04T04:00:54.372Z,14.81
2019-03-04T04:05:57.138Z,14.78
2019-03-04T04:10:59.931Z,14.75
2019-03-04T04:16:02.641Z,14.76
2019-03-04T04:21:05.349Z,14.84
2019-03-04T04:26:20.406Z,14.79
2019-03-04T04:31:23.120Z,14.80
2019-03-04T04:36:25.822Z,14.82
2019-03-04T04:41:28.513Z,14.93
2019-03-04T04:46:54.242Z,14.78
2019-03-04T04:51:56.949Z,14.72
2019-03-04T04:56:59.653Z,14.66
2019-03-04T05:02:02.374Z,14.73
2019-03-04T05:07:05.069Z,14.84
2019-03-04T05:12:07.767Z,14.76
2019-03-04T05:17:10.469Z,14.79
2019-03-04T05:22:13.192Z,14.79
2019-03-04T05:27:15.914Z,14.64
2019-03-04T05:32:18.610Z,14.73
2019-03-04T05:37:21.319Z,14.81
2019-03-04T05:42:24.632Z,14.85
2019-03-04T05:47:27.446Z,14.83
2019-03-04T05:52:30.168Z,15.00
2019-03-04T05:57:32.851Z,15.06
2019-03-04T06:02:35.548Z,15.17
2019-03-04T06:07:41.882Z,15.28
2019-03-04T06:12:44.587Z,15.28
2019-03-04T06:17:47.334Z,15.39
2019-03-04T06:22:50.051Z,15.36
2019-03-04T06:27:52.764Z,15.29
2019-03-04T06:32:55.477Z,15.35
2019-03-04T06:37:58.709Z,15.43
2019-03-04T06:43:01.549Z,15.55
2019-03-04T06:48:09.174Z,15.45
2019-03-04T06:53:11.923Z,15.40
2019-03-04T06:58:14.631Z,15.48
2019-03-04T07:03:53.986Z,15.54
2019-03-04T07:09:15.701Z,15.55
2019-03-04T07:14:18.428Z,15.73
2019-03-04T07:19:32.852Z,15.64
2019-03-04T07:24:35.565Z,15.72
2019-03-04T07:29:39.192Z,15.58
2019-03-04T07:34:41.894Z,15.49
2019-03-04T07:39:44.618Z,15.29
2019-03-04T07:44:47.822Z,15.36
2019-03-04T07:49:50.717Z,14.10
2019-03-04T07:54:53.403Z,11.50
2019-03-04T07:59:57.017Z,10.97
2019-03-04T08:04:59.790Z,10.92
2019-03-04T08:11:18.619Z,11.02
2019-03-04T08:16:21.353Z,11.15
2019-03-04T08:21:24.106Z,11.32
2019-03-04T08:26:26.816Z,11.65
2019-03-04T08:31:29.748Z,11.78
2019-03-04T08:36:32.468Z,11.89
2019-03-04T08:41:35.190Z,11.36
2019-03-04T08:46:37.908Z,11.94
2019-03-04T08:51:40.630Z,12.02
2019-03-04T08:56:43.603Z,12.25
2019-03-04T09:01:46.305Z,12.50
2019-03-04T09:06:49.046Z,12.84
2019-03-04T09:11:51.903Z,12.83
2019-03-04T09:16:54.598Z,13.13
2019-03-04T09:21:57.305Z,12.96
2019-03-04T09:26:59.992Z,12.99
2019-03-04T09:32:02.711Z,13.54
2019-03-04T09:37:05.436Z,13.26
2019-03-04T09:42:18.204Z,12.93
2019-03-04T09:47:20.897Z,12.69
2019-03-04T09:52:23.600Z,12.54
2019-03-04T09:57:26.299Z,12.59
2019-03-04T10:02:40.506Z,12.79
2019-03-04T10:08:32.414Z,12.90
2019-03-04T10:13:29.481Z,12.94
2019-03-04T10:24:32.784Z,13.43
2019-03-04T10:30:14.796Z,13.75
2019-03-04T10:36:19.138Z,13.62
2019-03-04T10:42:17.952Z,13.27
2019-03-04T10:47:20.675Z,13.57
2019-03-04T10:52:23.415Z,13.49
2019-03-04T10:57:26.102Z,13.52
2019-03-04T11:02:28.799Z,14.03
2019-03-04T11:07:31.509Z,14.23
2019-03-04T11:12:34.219Z,14.81
2019-03-04T11:17:37.038Z,14.38
2019-03-04T11:22:39.930Z,13.84
2019-03-04T11:27:42.721Z,13.70
2019-03-04T11:32:45.422Z,13.77
2019-03-04T11:37:48.139Z,13.56
2019-03-04T11:42:51.159Z,14.07
2019-03-04T11:47:54.262Z,14.07
2019-03-04T11:52:57.765Z,14.14
2019-03-04T11:58:01.122Z,14.34
2019-03-04T12:03:03.980Z,14.36
2019-03-04T12:08:10.154Z,13.69
2019-03-04T12:13:12.901Z,12.94
2019-03-04T12:18:15.832Z,11.05
2019-03-04T12:23:21.148Z,10.42
2019-03-04T12:28:23.977Z,10.42
2019-03-04T12:33:27.301Z,10.45
2019-03-04T12:38:30.762Z,10.81
2019-03-04T12:43:34.203Z,10.93
2019-03-04T12:48:37.560Z,11.17
2019-03-04T12:53:40.999Z,11.34
2019-03-04T12:58:43.801Z,11.25
2019-03-04T13:03:46.511Z,11.16
2019-03-04T13:08:49.212Z,11.30
2019-03-04T13:13:51.930Z,11.43
2019-03-04T13:18:54.639Z,11.60
2019-03-04T13:23:57.323Z,11.83
2019-03-04T13:29:00.023Z,12.19
2019-03-04T13:34:02.735Z,11.98
2019-03-04T13:39:07.189Z,12.20
2019-03-04T13:44:09.892Z,12.39
2019-03-04T13:49:12.580Z,12.16
2019-03-04T13:54:15.301Z,12.31
2019-03-04T13:59:17.997Z,12.43
2019-03-04T14:04:20.690Z,12.55
2019-03-04T14:09:23.405Z,12.42
2019-03-04T14:14:26.128Z,12.15
2019-03-04T14:19:28.848Z,12.07
2019-03-04T14:24:31.603Z,11.75
2019-03-04T14:29:34.355Z,11.46
2019-03-04T14:34:37.064Z,11.48
2019-03-04T14:39:39.920Z,11.40
2019-03-04T14:44:42.625Z,11.49
2019-03-04T14:49:45.360Z,11.73
2019-03-04T14:54:48.067Z,11.79
2019-03-04T14:59:50.794Z,11.45
2019-03-04T15:04:53.489Z,11.29
2019-03-04T15:09:56.191Z,11.30
2019-03-04T15:14:58.907Z,11.36
2019-03-04T15:20:08.726Z,11.19
2019-03-04T15:25:09.713Z,11.20
2019-03-04T15:30:12.426Z,11.18
2019-03-04T15:35:15.169Z,11.39
2019-03-04T15:40:17.888Z,11.32
2019-03-04T15:45:21.196Z,11.29
2019-03-04T15:50:24.032Z,11.30
2019-03-04T15:55:26.722Z,11.26
2019-03-04T16:00:31.537Z,11.22
2019-03-04T16:05:34.382Z,11.16
2019-03-04T16:10:37.131Z,11.21
2019-03-04T16:15:42.035Z,11.19
2019-03-04T16:20:44.751Z,11.24
2019-03-04T16:25:47.552Z,11.19
2019-03-04T16:30:50.829Z,11.23
2019-03-04T16:35:53.547Z,11.32
2019-03-04T16:40:56.269Z,11.22
2019-03-04T16:45:58.996Z,11.25
2019-03-04T16:51:01.722Z,11.23
2019-03-04T16:56:04.624Z,11.07
2019-03-04T17:01:07.607Z,10.84
2019-03-04T17:06:10.373Z,10.77
2019-03-04T17:11:13.239Z,10.63
2019-03-04T17:16:16.009Z,10.69
2019-03-04T17:21:18.739Z,10.72
2019-03-04T17:26:21.470Z,10.75
2019-03-04T17:31:24.470Z,10.75
2019-03-04T17:36:27.158Z,10.86
2019-03-04T17:41:29.867Z,10.85
2019-03-04T17:46:32.596Z,10.88
2019-03-04T17:51:35.305Z,10.77
2019-03-04T17:56:38.036Z,10.81
2019-03-04T18:01:40.745Z,10.90
2019-03-04T18:06:43.450Z,10.84
2019-03-04T18:11:46.158Z,10.85
2019-03-04T18:16:48.848Z,10.77
2019-03-04T18:21:51.590Z,10.77
2019-03-04T18:27:03.620Z,10.72
2019-03-04T18:32:43.428Z,10.65
2019-03-04T18:38:43.953Z,10.62
2019-03-04T18:44:05.751Z,10.58
2019-03-04T18:49:09.263Z,10.45
2019-03-04T18:54:20.958Z,10.39
2019-03-04T19:04:25.935Z,10.33
2019-03-04T19:09:28.630Z,10.28
2019-03-04T19:14:31.332Z,10.11
2019-03-04T19:19:34.041Z,9.89
2019-03-04T19:24:36.728Z,9.83
2019-03-04T19:29:39.438Z,9.72
2019-03-04T19:34:42.138Z,9.67
2019-03-04T19:39:44.826Z,9.66
2019-03-04T19:44:47.535Z,9.56
2019-03-04T19:49:50.233Z,9.56
2019-03-04T19:54:52.930Z,9.48
2019-03-04T19:59:55.624Z,9.45
2019-03-04T20:04:58.321Z,9.50
2019-03-04T20:10:01.007Z,9.46
2019-03-04T20:15:10.262Z,9.62
2019-03-04T20:20:13.016Z,9.75
2019-03-04T20:25:16.143Z,9.67
2019-03-04T20:30:18.884Z,9.67
2019-03-04T20:35:21.706Z,9.67
2019-03-04T20:40:24.407Z,9.57
2019-03-04T20:45:27.458Z,9.51
2019-03-04T20:50:30.167Z,9.46
2019-03-04T20:55:32.910Z,9.37
2019-03-04T21:00:35.903Z,9.33
2019-03-04T21:05:38.691Z,9.32
2019-03-04T21:10:41.401Z,9.26
2019-03-04T21:15:44.098Z,9.19
2019-03-04T21:20:46.787Z,9.22
2019-03-04T21:26:07.619Z,9.26
2019-03-04T21:31:53.330Z,9.48
2019-03-04T21:37:04.466Z,9.41
2019-03-04T21:42:34.627Z,9.47
2019-03-04T21:47:44.356Z,9.59
2019-03-04T21:53:20.658Z,9.62
2019-03-04T21:58:23.500Z,9.52
2019-03-04T22:03:30.745Z,9.57
2019-03-04T22:08:33.455Z,9.50
2019-03-04T22:13:36.160Z,9.59
2019-03-04T22:18:38.961Z,9.48
2019-03-04T22:23:41.696Z,9.53
2019-03-04T22:28:44.385Z,9.46
2019-03-04T22:33:47.081Z,9.42
2019-03-04T22:38:49.781Z,9.27
2019-03-04T22:43:52.475Z,9.23
2019-03-04T22:48:55.174Z,9.30
2019-03-04T22:53:57.865Z,9.54
2019-03-04T22:59:00.596Z,9.63
2019-03-04T23:04:12.627Z,9.68
2019-03-04T23:09:16.562Z,9.73
2019-03-04T23:14:24.998Z,9.78
2019-03-04T23:19:27.684Z,9.79
2019-03-04T23:24:30.419Z,9.86
2019-03-04T23:29:33.118Z,9.76
2019-03-04T23:34:35.830Z,9.78
2019-03-04T23:39:38.549Z,9.77
2019-03-04T23:44:41.244Z,9.76
2019-03-04T23:49:43.940Z,9.84
2019-03-04T23:54:46.638Z,9.87
2019-03-04T23:59:49.350Z,9.85
